Bighill, Kentucky
Current Conditions -  °F | °C
As of 5:15 PM on Tuesday 21 Oct 2014 (Local Time) from KI39 Reporting Station
Overcast Overcast  
Wind Chill: 54°   Ceiling: 5000
Heat Index: 54°   Visibility: 10mi
Dew Point: 39°   Wind: 8mph
Humidity: 58%   Direction: 340°NNW
Pressure: 30.08"   Gusts: NA
Location:  37.55°N, 84.21°W
Report Text: KI39 212115Z AUTO 34007KT 10SM OVC050 12/04 A3008 RMK AO2
Loading
Personal Weather Stations






























Interactive Weather Map
Tropical Storm Tracking
New forecast layout! Learn more

10-Day Weather Forecast

Advertisements
Track Severe Weather on mobile